createdAt,value
2018-02-09T00:00:02.199Z,0.86
2018-02-09T00:01:07.907Z,0.82
2018-02-09T00:02:14.443Z,0.81
2018-02-09T00:03:20.937Z,0.80
2018-02-09T00:04:26.620Z,0.76
2018-02-09T00:05:32.359Z,0.71
2018-02-09T00:06:38.087Z,0.65
2018-02-09T00:07:43.798Z,0.58
2018-02-09T00:08:49.499Z,0.53
2018-02-09T00:09:55.985Z,0.51
2018-02-09T00:11:01.728Z,0.49
2018-02-09T00:12:07.439Z,0.45
2018-02-09T00:13:13.919Z,0.41
2018-02-09T00:14:20.392Z,0.38
2018-02-09T00:15:26.113Z,0.33
2018-02-09T00:16:32.607Z,0.30
2018-02-09T00:17:38.328Z,0.28
2018-02-09T00:18:45.086Z,0.27
2018-02-09T00:19:50.803Z,0.23
2018-02-09T00:20:57.313Z,0.23
2018-02-09T00:22:03.053Z,0.19
2018-02-09T00:23:08.780Z,0.19
2018-02-09T00:24:14.487Z,0.18
2018-02-09T00:25:20.979Z,0.13
2018-02-09T00:26:26.695Z,0.12
2018-02-09T00:27:33.227Z,0.15
2018-02-09T00:28:38.949Z,0.13
2018-02-09T00:29:44.664Z,0.11
2018-02-09T00:30:50.366Z,0.13
2018-02-09T00:31:56.906Z,0.11
2018-02-09T00:33:02.808Z,0.10
2018-02-09T00:34:08.534Z,0.10
2018-02-09T00:35:14.239Z,0.11
2018-02-09T00:36:19.963Z,0.11
2018-02-09T00:37:25.906Z,0.09
2018-02-09T00:38:31.675Z,0.05
2018-02-09T00:39:38.174Z,0.00
2018-02-09T00:40:43.879Z,0.02
2018-02-09T00:41:50.379Z,0.06
2018-02-09T00:42:56.082Z,0.05
2018-02-09T00:44:01.824Z,0.05
2018-02-09T00:45:08.368Z,0.08
2018-02-09T00:46:14.874Z,0.13
2018-02-09T00:47:20.592Z,0.17
2018-02-09T00:48:27.068Z,0.23
2018-02-09T00:49:32.801Z,0.27
2018-02-09T00:50:38.515Z,0.30
2018-02-09T00:51:44.221Z,0.34
2018-02-09T00:52:49.926Z,0.35
2018-02-09T00:53:55.636Z,0.39
2018-02-09T00:55:02.171Z,0.42
2018-02-09T00:56:07.890Z,0.46
2018-02-09T00:57:13.633Z,0.46
2018-02-09T00:58:19.339Z,0.48
2018-02-09T00:59:25.083Z,0.46
2018-02-09T01:00:31.650Z,0.40
2018-02-09T01:01:38.108Z,0.44
2018-02-09T01:02:43.828Z,0.43
2018-02-09T01:03:50.311Z,0.48
2018-02-09T01:04:56.016Z,0.50
2018-02-09T01:06:02.544Z,0.51
2018-02-09T01:07:08.286Z,0.51
2018-02-09T01:08:14.391Z,0.54
2018-02-09T01:09:20.102Z,0.54
2018-02-09T01:10:25.828Z,0.52
2018-02-09T01:11:31.577Z,0.50
2018-02-09T01:12:37.279Z,0.49
2018-02-09T01:13:43.005Z,0.45
2018-02-09T01:14:48.717Z,0.44
2018-02-09T01:15:55.185Z,0.45
2018-02-09T01:17:00.927Z,0.42
2018-02-09T01:18:06.640Z,0.44
2018-02-09T01:19:13.288Z,0.42
2018-02-09T01:20:18.989Z,0.41
2018-02-09T01:21:24.753Z,0.39
2018-02-09T01:22:30.517Z,0.38
2018-02-09T01:23:36.400Z,0.39
2018-02-09T01:24:42.886Z,0.40
2018-02-09T01:25:48.605Z,0.35
2018-02-09T01:26:54.314Z,0.34
2018-02-09T01:28:00.041Z,0.35
2018-02-09T01:29:05.748Z,0.29
2018-02-09T01:30:11.458Z,0.31
2018-02-09T01:31:17.933Z,0.32
2018-02-09T01:32:23.650Z,0.32
2018-02-09T01:33:30.147Z,0.29
2018-02-09T01:34:35.863Z,0.27
2018-02-09T01:35:41.571Z,0.27
2018-02-09T01:36:47.288Z,0.22
2018-02-09T01:37:53.001Z,0.21
2018-02-09T01:38:58.736Z,0.21
2018-02-09T01:40:04.486Z,0.19
2018-02-09T01:41:10.211Z,0.14
2018-02-09T01:42:15.923Z,0.13
2018-02-09T01:43:21.720Z,0.11
2018-02-09T01:44:27.492Z,0.07
2018-02-09T01:45:33.199Z,0.08
2018-02-09T01:46:38.923Z,0.09
2018-02-09T01:47:44.631Z,0.11
2018-02-09T01:48:51.126Z,0.06
2018-02-09T01:50:13.742Z,0.04
2018-02-09T01:51:20.219Z,0.00
2018-02-09T01:52:25.936Z,0.00
2018-02-09T01:53:32.421Z,0.01
2018-02-09T01:54:38.156Z,0.02
2018-02-09T01:55:43.881Z,-0.02
2018-02-09T01:56:49.711Z,0.01
2018-02-09T01:57:55.415Z,0.01
2018-02-09T01:59:01.137Z,0.03
2018-02-09T02:00:06.523Z,0.03
2018-02-09T02:01:13.024Z,0.03
2018-02-09T02:02:18.745Z,0.04
2018-02-09T02:03:24.447Z,0.06
2018-02-09T02:04:30.167Z,0.09
2018-02-09T02:05:35.879Z,0.11
2018-02-09T02:06:41.616Z,0.14
2018-02-09T02:07:47.105Z,0.17
2018-02-09T02:08:53.011Z,0.19
2018-02-09T02:09:58.728Z,0.16
2018-02-09T02:11:05.016Z,0.18
2018-02-09T02:12:10.752Z,0.23
2018-02-09T02:13:16.460Z,0.26
2018-02-09T02:14:22.181Z,0.27
2018-02-09T02:15:29.513Z,0.25
2018-02-09T02:16:35.234Z,0.21
2018-02-09T02:17:41.778Z,0.21
2018-02-09T02:18:47.672Z,0.18
2018-02-09T02:19:53.379Z,0.22
2018-02-09T02:20:59.092Z,0.19
2018-02-09T02:22:05.579Z,0.18
2018-02-09T02:23:11.330Z,0.18
2018-02-09T02:24:17.031Z,0.18
2018-02-09T02:25:23.508Z,0.15
2018-02-09T02:26:29.218Z,0.15
2018-02-09T02:27:35.711Z,0.15
2018-02-09T02:28:41.458Z,0.13
2018-02-09T02:29:47.168Z,0.15
2018-02-09T02:30:53.642Z,0.15
2018-02-09T02:31:59.370Z,0.12
2018-02-09T02:33:05.511Z,0.12
2018-02-09T02:34:12.012Z,0.13
2018-02-09T02:35:17.707Z,0.17
2018-02-09T02:36:24.184Z,0.17
2018-02-09T02:37:30.670Z,0.18
2018-02-09T02:38:36.378Z,0.16
2018-02-09T02:39:42.875Z,0.16
2018-02-09T02:40:48.592Z,0.14
2018-02-09T02:41:55.077Z,0.11
2018-02-09T02:43:00.788Z,0.12
2018-02-09T02:44:06.504Z,0.12
2018-02-09T02:45:12.251Z,0.13
2018-02-09T02:46:18.738Z,0.14
2018-02-09T02:47:24.451Z,0.19
2018-02-09T02:48:30.928Z,0.19
2018-02-09T02:49:36.465Z,0.21
2018-02-09T02:50:42.212Z,0.21
2018-02-09T02:51:47.919Z,0.20
2018-02-09T02:52:54.392Z,0.18
2018-02-09T02:54:00.872Z,0.14
2018-02-09T02:55:06.594Z,0.16
2018-02-09T02:56:13.099Z,0.13
2018-02-09T02:57:18.815Z,0.12
2018-02-09T02:58:24.523Z,0.08
2018-02-09T02:59:31.011Z,0.06
2018-02-09T03:00:36.749Z,0.05
2018-02-09T03:01:42.495Z,0.05
2018-02-09T03:02:48.212Z,0.03
2018-02-09T03:03:54.701Z,0.04
2018-02-09T03:05:00.449Z,0.04
2018-02-09T03:06:06.006Z,0.08
2018-02-09T03:07:11.753Z,0.05
2018-02-09T03:08:17.468Z,0.06
2018-02-09T03:09:23.192Z,0.04
2018-02-09T03:10:28.717Z,0.07
2018-02-09T03:11:34.431Z,0.11
2018-02-09T03:12:40.939Z,0.13
2018-02-09T03:13:46.648Z,0.14
2018-02-09T03:14:53.131Z,0.14
2018-02-09T03:15:58.690Z,0.20
2018-02-09T03:17:04.399Z,0.21
2018-02-09T03:18:10.130Z,0.23
2018-02-09T03:19:15.855Z,0.25
2018-02-09T03:20:22.662Z,0.25
2018-02-09T03:21:28.366Z,0.28
2018-02-09T03:22:34.844Z,0.29
2018-02-09T03:23:40.579Z,0.30
2018-02-09T03:24:46.300Z,0.31
2018-02-09T03:25:52.800Z,0.26
2018-02-09T03:26:58.508Z,0.20
2018-02-09T03:28:04.981Z,0.15
2018-02-09T03:29:10.728Z,0.10
2018-02-09T03:30:16.453Z,0.10
2018-02-09T03:31:22.180Z,0.07
2018-02-09T03:32:28.704Z,0.02
2018-02-09T03:33:34.427Z,0.00
2018-02-09T03:34:40.170Z,-0.06
2018-02-09T03:35:45.891Z,-0.05
2018-02-09T03:36:51.615Z,-0.12
2018-02-09T03:37:57.352Z,-0.18
2018-02-09T03:39:03.591Z,-0.18
2018-02-09T03:40:10.117Z,-0.22
2018-02-09T03:41:15.835Z,-0.25
2018-02-09T03:42:21.560Z,-0.30
2018-02-09T03:43:27.271Z,-0.34
2018-02-09T03:44:33.769Z,-0.37
2018-02-09T03:45:39.512Z,-0.40
2018-02-09T03:46:45.249Z,-0.41
2018-02-09T03:47:50.959Z,-0.42
2018-02-09T03:48:57.460Z,-0.45
2018-02-09T03:50:03.192Z,-0.49
2018-02-09T03:51:08.927Z,-0.53
2018-02-09T03:52:14.644Z,-0.58
2018-02-09T03:53:21.141Z,-0.58
2018-02-09T03:54:26.995Z,-0.58
2018-02-09T03:55:32.712Z,-0.60
2018-02-09T03:56:38.461Z,-0.60
2018-02-09T03:57:44.176Z,-0.63
2018-02-09T03:58:50.660Z,-0.65
2018-02-09T03:59:56.376Z,-0.66
2018-02-09T04:01:02.863Z,-0.65
2018-02-09T04:02:08.605Z,-0.61
2018-02-09T04:03:14.335Z,-0.58
2018-02-09T04:04:20.064Z,-0.59
2018-02-09T04:05:25.795Z,-0.58
2018-02-09T04:06:32.042Z,-0.58
2018-02-09T04:07:38.548Z,-0.56
2018-02-09T04:08:44.316Z,-0.54
2018-02-09T04:09:50.024Z,-0.52
2018-02-09T04:10:55.753Z,-0.51
2018-02-09T04:12:01.467Z,-0.51
2018-02-09T04:13:07.971Z,-0.52
2018-02-09T04:14:14.012Z,-0.59
2018-02-09T04:15:19.794Z,-0.61
2018-02-09T04:16:25.506Z,-0.63
2018-02-09T04:17:31.229Z,-0.65
2018-02-09T04:18:36.976Z,-0.63
2018-02-09T04:19:42.704Z,-0.65
2018-02-09T04:20:48.235Z,-0.66
2018-02-09T04:21:53.956Z,-0.71
2018-02-09T04:23:00.451Z,-0.73
2018-02-09T04:24:06.207Z,-0.75
2018-02-09T04:25:11.924Z,-0.76
2018-02-09T04:26:17.649Z,-0.78
2018-02-09T04:27:24.144Z,-0.77
2018-02-09T04:28:29.858Z,-0.81
2018-02-09T04:29:35.859Z,-0.80
2018-02-09T04:30:42.656Z,-0.84
2018-02-09T04:31:49.442Z,-0.86
2018-02-09T04:32:55.729Z,-0.87
2018-02-09T04:34:01.807Z,-0.89
2018-02-09T04:35:08.128Z,-0.91
2018-02-09T04:36:14.696Z,-0.91
2018-02-09T04:37:20.729Z,-0.91
2018-02-09T04:38:28.117Z,-0.90
2018-02-09T04:39:35.856Z,-0.90
2018-02-09T04:40:42.716Z,-0.91
2018-02-09T04:41:48.601Z,-0.93
2018-02-09T04:42:55.261Z,-0.99
2018-02-09T04:44:01.116Z,-1.02
2018-02-09T04:45:07.253Z,-1.02
2018-02-09T04:46:14.214Z,-1.01
2018-02-09T04:47:20.082Z,-1.02
2018-02-09T04:48:26.049Z,-1.04
2018-02-09T04:49:32.741Z,-1.05
2018-02-09T04:50:39.256Z,-1.06
2018-02-09T04:51:45.239Z,-1.08
2018-02-09T04:52:51.981Z,-1.09
2018-02-09T04:53:58.779Z,-1.08
2018-02-09T04:55:04.950Z,-1.09
2018-02-09T04:56:10.975Z,-1.08
2018-02-09T04:57:16.858Z,-1.10
2018-02-09T04:58:22.821Z,-1.15
2018-02-09T04:59:28.843Z,-1.19
2018-02-09T05:00:35.717Z,-1.20
2018-02-09T05:01:42.428Z,-1.21
2018-02-09T05:02:49.117Z,-1.25
2018-02-09T05:03:55.348Z,-1.26
2018-02-09T05:05:02.175Z,-1.27
2018-02-09T05:06:08.691Z,-1.29
2018-02-09T05:07:14.752Z,-1.27
2018-02-09T05:08:20.669Z,-1.27
2018-02-09T05:09:27.421Z,-1.27
2018-02-09T05:10:34.414Z,-1.27
2018-02-09T05:11:41.726Z,-1.29
2018-02-09T05:12:47.831Z,-1.29
2018-02-09T05:13:54.557Z,-1.33
2018-02-09T05:15:01.396Z,-1.35
2018-02-09T05:16:07.555Z,-1.35
2018-02-09T05:17:14.462Z,-1.34
2018-02-09T05:18:20.180Z,-1.36
2018-02-09T05:19:26.184Z,-1.34
2018-02-09T05:20:32.169Z,-1.32
2018-02-09T05:21:38.210Z,-1.32
2018-02-09T05:22:44.194Z,-1.35
2018-02-09T05:23:50.317Z,-1.36
2018-02-09T05:24:56.280Z,-1.37
2018-02-09T05:26:02.177Z,-1.39
2018-02-09T05:27:07.964Z,-1.39
2018-02-09T05:28:13.882Z,-1.40
2018-02-09T05:29:19.946Z,-1.41
2018-02-09T05:30:25.993Z,-1.41
2018-02-09T05:31:31.941Z,-1.44
2018-02-09T05:32:37.975Z,-1.42
2018-02-09T05:33:44.684Z,-1.42
2018-02-09T05:34:50.425Z,-1.41
2018-02-09T05:35:56.541Z,-1.42
2018-02-09T05:37:02.488Z,-1.43
2018-02-09T05:38:08.300Z,-1.43
2018-02-09T05:39:14.442Z,-1.44
2018-02-09T05:40:20.301Z,-1.46
2018-02-09T05:41:27.017Z,-1.50
2018-02-09T05:42:34.560Z,-1.48
2018-02-09T05:43:40.696Z,-1.49
2018-02-09T05:44:47.129Z,-1.49
2018-02-09T05:45:53.132Z,-1.49
2018-02-09T05:46:59.096Z,-1.52
2018-02-09T05:48:04.863Z,-1.50
2018-02-09T05:49:10.774Z,-1.53
2018-02-09T05:50:16.797Z,-1.54
2018-02-09T05:51:22.736Z,-1.56
2018-02-09T05:52:29.486Z,-1.57
2018-02-09T05:53:35.537Z,-1.58
2018-02-09T05:54:41.454Z,-1.60
2018-02-09T05:55:47.307Z,-1.60
2018-02-09T05:56:53.307Z,-1.61
2018-02-09T05:57:59.967Z,-1.61
2018-02-09T05:59:06.230Z,-1.62
2018-02-09T06:00:11.974Z,-1.63
2018-02-09T06:01:17.702Z,-1.64
2018-02-09T06:02:23.459Z,-1.67
2018-02-09T06:03:29.216Z,-1.68
2018-02-09T06:04:34.927Z,-1.68
2018-02-09T06:05:40.671Z,-1.71
2018-02-09T06:06:46.605Z,-1.71
2018-02-09T06:07:52.007Z,-1.70
2018-02-09T06:08:58.104Z,-1.72
2018-02-09T06:10:03.821Z,-1.72
2018-02-09T06:11:09.548Z,-1.75
2018-02-09T06:12:16.043Z,-1.77
2018-02-09T06:13:21.778Z,-1.78
2018-02-09T06:14:27.549Z,-1.78
2018-02-09T06:15:33.276Z,-1.75
2018-02-09T06:16:39.004Z,-1.76
2018-02-09T06:17:44.723Z,-1.75
2018-02-09T06:18:51.230Z,-1.73
2018-02-09T06:19:57.164Z,-1.72
2018-02-09T06:21:02.888Z,-1.74
2018-02-09T06:22:08.612Z,-1.72
2018-02-09T06:23:14.356Z,-1.70
2018-02-09T06:24:20.080Z,-1.70
2018-02-09T06:25:26.600Z,-1.68
2018-02-09T06:26:32.386Z,-1.70
2018-02-09T06:27:38.880Z,-1.71
2018-02-09T06:28:44.610Z,-1.69
2018-02-09T06:29:50.367Z,-1.68
2018-02-09T06:30:56.113Z,-1.64
2018-02-09T06:32:01.836Z,-1.63
2018-02-09T06:33:07.773Z,-1.59
2018-02-09T06:34:13.487Z,-1.56
2018-02-09T06:35:20.023Z,-1.53
2018-02-09T06:36:25.775Z,-1.51
2018-02-09T06:37:31.515Z,-1.50
2018-02-09T06:38:38.020Z,-1.48
2018-02-09T06:39:43.731Z,-1.44
2018-02-09T06:40:50.232Z,-1.44
2018-02-09T06:41:55.987Z,-1.44
2018-02-09T06:43:01.711Z,-1.42
2018-02-09T06:44:07.339Z,-1.41
2018-02-09T06:45:13.051Z,-1.42
2018-02-09T06:46:19.535Z,-1.40
2018-02-09T06:47:26.099Z,-1.41
2018-02-09T06:48:31.817Z,-1.41
2018-02-09T06:49:38.307Z,-1.41
2018-02-09T06:50:44.039Z,-1.42
2018-02-09T06:51:49.760Z,-1.40
2018-02-09T06:52:56.282Z,-1.42
2018-02-09T06:54:02.009Z,-1.41
2018-02-09T06:55:07.736Z,-1.40
2018-02-09T06:56:13.465Z,-1.43
2018-02-09T06:57:19.213Z,-1.44
2018-02-09T06:58:24.967Z,-1.47
2018-02-09T06:59:30.691Z,-1.44
2018-02-09T07:00:37.627Z,-1.47
2018-02-09T07:01:44.116Z,-1.48
2018-02-09T07:02:50.108Z,-1.53
2018-02-09T07:03:56.002Z,-1.54
2018-02-09T07:05:01.974Z,-1.55
2018-02-09T07:06:07.843Z,-1.58
2018-02-09T07:07:13.561Z,-1.61
2018-02-09T07:08:19.295Z,-1.65
2018-02-09T07:09:25.082Z,-1.65
2018-02-09T07:10:30.824Z,-1.70
2018-02-09T07:11:37.724Z,-1.67
2018-02-09T07:13:47.154Z,-1.70
2018-02-09T07:14:53.776Z,-1.76
2018-02-09T07:15:59.664Z,-1.77
2018-02-09T07:17:05.375Z,-1.78
2018-02-09T07:18:12.106Z,-1.75
2018-02-09T07:19:17.847Z,-1.71
2018-02-09T07:20:23.600Z,-1.69
2018-02-09T07:21:30.848Z,-1.66
2018-02-09T07:22:36.620Z,-1.63
2018-02-09T07:23:42.340Z,-1.60
2018-02-09T07:24:48.069Z,-1.58
2018-02-09T07:25:53.879Z,-1.55
2018-02-09T07:26:59.613Z,-1.54
2018-02-09T07:28:06.103Z,-1.52
2018-02-09T07:29:11.833Z,-1.50
2018-02-09T07:30:17.569Z,-1.47
2018-02-09T07:31:24.101Z,-1.46
2018-02-09T07:32:30.798Z,-1.41
2018-02-09T07:33:37.486Z,-1.41
2018-02-09T07:34:43.290Z,-1.37
2018-02-09T07:35:49.909Z,-1.29
2018-02-09T07:36:56.468Z,-1.23
2018-02-09T07:38:02.347Z,-1.06
2018-02-09T07:39:08.356Z,-1.00
2018-02-09T07:40:14.843Z,-0.96
2018-02-09T07:41:21.360Z,-0.93
2018-02-09T07:42:27.123Z,-0.92
2018-02-09T07:43:32.919Z,-0.90
2018-02-09T07:44:38.636Z,-0.87
2018-02-09T07:45:45.136Z,-0.85
2018-02-09T07:46:50.872Z,-0.81
2018-02-09T07:47:56.624Z,-0.77
2018-02-09T07:49:02.365Z,-0.79
2018-02-09T07:50:08.083Z,-0.78
2018-02-09T07:51:13.809Z,-0.82
2018-02-09T07:52:19.288Z,-0.78
2018-02-09T07:53:25.071Z,-0.76
2018-02-09T07:54:31.464Z,-0.73
2018-02-09T07:55:37.200Z,-0.70
2018-02-09T07:56:42.942Z,-0.66
2018-02-09T07:57:48.492Z,-0.67
2018-02-09T07:58:54.260Z,-0.65
2018-02-09T08:00:00.788Z,-0.63
2018-02-09T08:01:06.716Z,-0.55
2018-02-09T08:02:12.462Z,-0.54
2018-02-09T08:03:18.203Z,-0.50
2018-02-09T08:04:23.948Z,-0.47
2018-02-09T08:05:29.680Z,-0.47
2018-02-09T08:06:35.415Z,-0.42
2018-02-09T08:07:42.674Z,-0.37
2018-02-09T08:08:49.176Z,-0.36
2018-02-09T08:09:54.916Z,-0.33
2018-02-09T08:11:00.714Z,-0.33
2018-02-09T08:12:07.307Z,-0.33
2018-02-09T08:13:13.060Z,-0.32
2018-02-09T08:14:18.803Z,-0.34
2018-02-09T08:15:24.885Z,-0.31
2018-02-09T08:16:30.601Z,-0.29
2018-02-09T08:17:36.318Z,-0.30
2018-02-09T08:18:42.060Z,-0.24
2018-02-09T08:19:47.800Z,-0.18
2018-02-09T08:20:53.549Z,-0.17
2018-02-09T08:21:59.156Z,-0.12
2018-02-09T08:23:05.645Z,-0.10
2018-02-09T08:24:11.359Z,-0.10
2018-02-09T08:25:17.852Z,-0.07
2018-02-09T08:26:23.615Z,-0.03
2018-02-09T08:27:29.352Z,0.05
2018-02-09T08:28:35.067Z,0.08
2018-02-09T08:29:40.776Z,0.13
2018-02-09T08:30:47.265Z,0.20
2018-02-09T08:31:53.008Z,0.30
2018-02-09T08:32:58.720Z,0.41
2018-02-09T08:34:05.228Z,0.55
2018-02-09T08:35:10.949Z,0.73
2018-02-09T08:36:16.954Z,1.08
2018-02-09T08:37:22.690Z,1.32
2018-02-09T08:38:28.401Z,1.51
2018-02-09T08:39:34.164Z,1.68
2018-02-09T08:40:40.095Z,1.86
2018-02-09T08:41:45.824Z,2.04
2018-02-09T08:42:51.296Z,2.39
2018-02-09T08:43:57.058Z,2.59
2018-02-09T08:45:02.787Z,2.78
2018-02-09T08:46:08.508Z,2.95
2018-02-09T08:47:14.232Z,3.05
2018-02-09T08:48:19.983Z,3.17
2018-02-09T08:49:25.696Z,3.34
2018-02-09T08:50:32.216Z,3.55
2018-02-09T08:51:37.932Z,3.71
2018-02-09T08:52:43.639Z,3.87
2018-02-09T08:53:49.400Z,4.11
2018-02-09T08:54:55.132Z,4.16
2018-02-09T08:56:00.844Z,4.31
2018-02-09T08:57:07.131Z,4.41
2018-02-09T08:58:12.858Z,4.51
2018-02-09T08:59:19.561Z,4.82
2018-02-09T09:00:25.575Z,4.89
2018-02-09T09:01:31.625Z,5.01
2018-02-09T09:02:37.372Z,5.09
2018-02-09T09:03:43.084Z,5.19
2018-02-09T09:04:49.592Z,5.28
2018-02-09T09:05:55.303Z,5.35
2018-02-09T09:07:01.012Z,5.39
2018-02-09T09:08:07.501Z,5.42
2018-02-09T09:09:13.451Z,5.45
2018-02-09T09:10:19.274Z,5.57
2018-02-09T09:11:25.848Z,5.78
2018-02-09T09:12:31.999Z,5.91
2018-02-09T09:13:37.721Z,5.93
2018-02-09T09:14:44.285Z,6.03
2018-02-09T09:15:50.960Z,6.17
2018-02-09T09:16:56.768Z,6.32
2018-02-09T09:18:03.273Z,6.37
2018-02-09T09:19:08.979Z,6.37
2018-02-09T09:20:15.487Z,6.42
2018-02-09T09:21:21.223Z,6.51
2018-02-09T09:22:26.736Z,6.84
2018-02-09T09:23:32.482Z,7.00
2018-02-09T09:24:37.949Z,7.24
2018-02-09T09:25:43.747Z,7.13
2018-02-09T09:26:50.287Z,7.07
2018-02-09T09:27:55.992Z,7.06
2018-02-09T09:29:01.714Z,7.04
2018-02-09T09:30:07.431Z,7.14
2018-02-09T09:31:13.901Z,7.36
2018-02-09T09:32:19.636Z,7.42
2018-02-09T09:33:26.133Z,7.51
2018-02-09T09:34:31.841Z,7.54
2018-02-09T09:35:37.552Z,7.58
2018-02-09T09:36:43.260Z,7.66
2018-02-09T09:37:49.029Z,7.59
2018-02-09T09:38:55.507Z,7.61
2018-02-09T09:40:01.978Z,7.61
2018-02-09T09:41:07.686Z,7.60
2018-02-09T09:42:13.410Z,7.57
2018-02-09T09:43:19.149Z,7.50
2018-02-09T09:44:24.886Z,7.44
2018-02-09T09:45:30.593Z,7.41
2018-02-09T09:46:36.315Z,7.47
2018-02-09T09:47:42.790Z,7.52
2018-02-09T09:48:48.528Z,7.52
2018-02-09T09:49:54.035Z,7.52
2018-02-09T09:51:00.516Z,7.58
2018-02-09T09:52:06.261Z,7.54
2018-02-09T09:53:11.961Z,7.67
2018-02-09T09:54:17.696Z,7.74
2018-02-09T09:55:24.932Z,7.70
2018-02-09T09:56:30.658Z,7.81
2018-02-09T09:57:36.459Z,7.76
2018-02-09T09:58:42.954Z,7.80
2018-02-09T09:59:49.447Z,7.89
2018-02-09T10:00:55.169Z,7.95
2018-02-09T10:02:00.876Z,7.93
2018-02-09T10:03:07.368Z,7.64
2018-02-09T10:04:13.095Z,7.55
2018-02-09T10:05:18.832Z,7.45
2018-02-09T10:06:24.555Z,7.45
2018-02-09T10:07:31.044Z,7.34
2018-02-09T10:08:36.752Z,7.12
2018-02-09T10:09:43.245Z,7.00
2018-02-09T10:10:48.989Z,6.97
2018-02-09T10:11:54.754Z,6.91
2018-02-09T10:13:00.460Z,6.86
2018-02-09T10:14:06.184Z,6.83
2018-02-09T10:15:12.656Z,6.75
2018-02-09T10:16:18.402Z,6.64
2018-02-09T10:17:24.151Z,6.63
2018-02-09T10:18:29.850Z,6.57
2018-02-09T10:19:36.332Z,6.50
2018-02-09T10:20:42.056Z,6.42
2018-02-09T10:21:48.552Z,6.44
2018-02-09T10:22:54.281Z,6.56
2018-02-09T10:24:02.667Z,6.67
2018-02-09T10:25:08.401Z,6.74
2018-02-09T10:26:14.880Z,6.79
2018-02-09T10:27:20.719Z,6.80
2018-02-09T10:28:26.425Z,6.77
2018-02-09T10:29:32.140Z,6.75
2018-02-09T10:30:37.876Z,6.71
2018-02-09T10:31:43.686Z,6.72
2018-02-09T10:32:49.440Z,6.68
2018-02-09T10:33:55.147Z,6.64
2018-02-09T10:35:01.629Z,6.67
2018-02-09T10:36:07.345Z,6.80
2018-02-09T10:37:13.826Z,6.88
2018-02-09T10:38:22.193Z,6.77
2018-02-09T10:39:27.891Z,6.76
2018-02-09T10:40:33.704Z,6.70
2018-02-09T10:41:40.180Z,6.69
2018-02-09T10:42:45.912Z,6.78
2018-02-09T10:43:51.640Z,6.71
2018-02-09T10:44:58.159Z,6.64
2018-02-09T10:46:03.892Z,6.69
2018-02-09T10:47:09.609Z,6.64
2018-02-09T10:48:15.323Z,6.63
2018-02-09T10:49:21.085Z,6.60
2018-02-09T10:50:26.841Z,6.59
2018-02-09T10:51:32.659Z,6.55
2018-02-09T10:52:38.371Z,6.47
2018-02-09T10:53:44.865Z,6.58
2018-02-09T10:54:50.605Z,6.68
2018-02-09T10:55:56.332Z,6.66
2018-02-09T10:57:02.044Z,6.69
2018-02-09T10:58:08.533Z,6.70
2018-02-09T10:59:14.274Z,6.75
2018-02-09T11:01:58.946Z,6.73
2018-02-09T11:03:04.667Z,6.75
2018-02-09T11:04:11.162Z,6.59
2018-02-09T11:05:16.892Z,6.58
2018-02-09T11:06:22.633Z,6.67
2018-02-09T11:07:28.341Z,6.71
2018-02-09T11:08:34.819Z,6.75
2018-02-09T11:09:40.353Z,6.69
2018-02-09T11:10:50.420Z,6.59
2018-02-09T11:12:01.892Z,6.52
2018-02-09T11:13:13.079Z,6.33
2018-02-09T11:14:18.784Z,6.22
2018-02-09T11:15:24.501Z,6.22
2018-02-09T11:16:30.967Z,6.23
2018-02-09T11:17:37.527Z,6.14
2018-02-09T11:18:44.067Z,6.11
2018-02-09T11:19:50.569Z,6.13
2018-02-09T11:20:56.539Z,6.16
2018-02-09T11:22:02.305Z,6.02
2018-02-09T11:23:08.153Z,5.91
2018-02-09T11:24:15.366Z,5.95
2018-02-09T11:25:21.117Z,5.94
2018-02-09T11:26:26.890Z,5.84
2018-02-09T11:27:32.864Z,5.82
2018-02-09T11:28:38.740Z,5.79
2018-02-09T11:29:45.230Z,5.74
2018-02-09T11:30:51.228Z,5.73
2018-02-09T11:31:57.716Z,5.72
2018-02-09T11:33:03.452Z,5.62
2018-02-09T11:34:09.188Z,5.57
2018-02-09T11:35:15.410Z,5.54
2018-02-09T11:36:21.116Z,5.56
2018-02-09T11:37:26.828Z,5.47
2018-02-09T11:38:32.552Z,5.34
2018-02-09T11:39:38.318Z,5.28
2018-02-09T11:40:44.041Z,5.32
2018-02-09T11:41:49.756Z,5.31
2018-02-09T11:42:56.224Z,5.27
2018-02-09T11:44:02.730Z,5.28
2018-02-09T11:45:08.476Z,5.24
2018-02-09T11:46:14.191Z,5.27
2018-02-09T11:47:19.893Z,5.27
2018-02-09T11:48:26.380Z,5.16
2018-02-09T11:49:32.122Z,5.12
2018-02-09T11:50:38.813Z,5.06
2018-02-09T11:51:45.289Z,4.97
2018-02-09T11:52:51.002Z,4.95
2018-02-09T11:53:56.736Z,4.94
2018-02-09T11:55:02.445Z,5.02
2018-02-09T11:56:08.963Z,5.06
2018-02-09T11:57:14.681Z,5.08
2018-02-09T11:58:20.394Z,4.98
2018-02-09T11:59:26.867Z,4.99
2018-02-09T12:00:32.616Z,4.99
2018-02-09T12:01:38.370Z,4.99
2018-02-09T12:02:44.238Z,4.92
2018-02-09T12:03:49.944Z,5.04
2018-02-09T12:04:55.662Z,5.16
2018-02-09T12:06:02.147Z,5.30
2018-02-09T12:07:07.908Z,5.36
2018-02-09T12:08:13.646Z,5.39
2018-02-09T12:09:19.357Z,5.46
2018-02-09T12:10:25.117Z,5.54
2018-02-09T12:11:30.866Z,5.51
2018-02-09T12:12:36.608Z,5.62
2018-02-09T12:13:42.328Z,5.72
2018-02-09T12:14:48.032Z,5.76
2018-02-09T12:15:54.517Z,5.88
2018-02-09T12:17:00.294Z,5.99
2018-02-09T12:18:06.028Z,6.04
2018-02-09T12:19:11.799Z,6.00
2018-02-09T12:20:17.517Z,6.03
2018-02-09T12:21:23.232Z,5.95
2018-02-09T12:22:28.941Z,5.88
2018-02-09T12:23:35.460Z,5.73
2018-02-09T12:24:41.176Z,5.61
2018-02-09T12:25:47.212Z,5.54
2018-02-09T12:26:52.940Z,5.47
2018-02-09T12:27:58.656Z,5.39
2018-02-09T12:29:04.389Z,5.28
2018-02-09T12:30:09.832Z,5.41
2018-02-09T12:31:15.610Z,5.41
2018-02-09T12:32:21.325Z,5.38
2018-02-09T12:33:27.798Z,5.43
2018-02-09T12:34:33.543Z,5.45
2018-02-09T12:35:39.148Z,5.57
2018-02-09T12:36:44.957Z,5.76
2018-02-09T12:37:50.784Z,5.74
2018-02-09T12:38:56.513Z,5.71
2018-02-09T12:40:02.333Z,5.71
2018-02-09T12:41:08.953Z,5.79
2018-02-09T12:42:15.407Z,5.91
2018-02-09T12:43:21.943Z,5.96
2018-02-09T12:44:27.695Z,5.97
2018-02-09T12:45:33.465Z,5.94
2018-02-09T12:46:39.224Z,6.01
2018-02-09T12:47:45.721Z,6.04
2018-02-09T12:48:53.196Z,6.06
2018-02-09T12:49:59.672Z,6.01
2018-02-09T12:51:05.898Z,6.05
2018-02-09T12:52:11.636Z,6.12
2018-02-09T12:53:19.080Z,6.06
2018-02-09T12:54:24.948Z,5.98
2018-02-09T12:55:30.660Z,6.00
2018-02-09T12:56:37.159Z,5.90
2018-02-09T12:57:43.652Z,5.81
2018-02-09T12:58:49.407Z,5.76
2018-02-09T12:59:55.118Z,5.70
2018-02-09T13:01:00.932Z,5.70
2018-02-09T13:02:07.445Z,5.70
2018-02-09T13:03:13.259Z,5.64
2018-02-09T13:04:19.037Z,5.55
2018-02-09T13:05:24.783Z,5.53
2018-02-09T13:06:30.516Z,5.52
2018-02-09T13:07:36.263Z,5.47
2018-02-09T13:08:42.889Z,5.43
2018-02-09T13:09:48.849Z,5.43
2018-02-09T13:10:54.568Z,5.42
2018-02-09T13:12:01.833Z,5.46
2018-02-09T13:13:12.343Z,5.51
2018-02-09T13:14:35.420Z,5.49
2018-02-09T13:15:41.152Z,5.55
2018-02-09T13:16:46.885Z,5.64
2018-02-09T13:17:52.665Z,5.57
2018-02-09T13:18:59.492Z,5.50
2018-02-09T13:20:05.351Z,5.45
2018-02-09T13:21:11.101Z,-142.88
